Time;durP1;ratioP1;P1;durP2;ratioP2;P2;SDS_P1;SDS_P2;PMS_P1;PMS_P2;Temp;Humidity;BMP_temperature;BMP_pressure;BME280_temperature;BME280_humidity;BME280_pressure;Samples;Min_cycle;Max_cycle;Signal;HPM_P1;HPM_P2
2022/12/23 00:00:18;;;;;;;31.77;17.37;;;7.00;99.90;;;;;;5072913;28;20712;-67
2022/12/23 00:02:44;;;;;;;30.10;16.60;;;7.10;99.90;;;;;;5074103;28;20969;-73
2022/12/23 00:05:11;;;;;;;27.57;16.70;;;7.10;99.90;;;;;;5075975;28;20850;-73
2022/12/23 00:07:37;;;;;;;27.27;15.83;;;7.10;99.90;;;;;;5076697;28;20434;-74
2022/12/23 00:10:03;;;;;;;27.77;17.77;;;7.10;99.90;;;;;;5076441;28;20389;-72
2022/12/23 00:15:14;;;;;;;23.87;14.67;;;7.10;99.90;;;;;;5075886;28;20458;-68
2022/12/23 00:17:43;;;;;;;29.90;15.50;;;7.10;99.90;;;;;;5076465;28;20405;-67
2022/12/23 00:20:11;;;;;;;23.97;15.73;;;7.10;99.90;;;;;;5076375;28;20166;-68
2022/12/23 00:25:39;;;;;;;24.17;15.60;;;7.10;99.90;;;;;;5075813;28;20527;-67
2022/12/23 00:28:16;;;;;;;29.90;17.30;;;7.10;99.90;;;;;;5076329;28;20401;-73
2022/12/23 00:30:53;;;;;;;33.70;16.90;;;7.10;99.90;;;;;;5058739;28;20508;-68
2022/12/23 00:33:22;;;;;;;27.80;16.40;;;7.00;99.90;;;;;;5076416;28;20542;-73
2022/12/23 00:35:48;;;;;;;30.10;17.23;;;7.00;99.90;;;;;;5057752;28;20427;-68
2022/12/23 00:38:15;;;;;;;28.80;17.93;;;7.00;99.90;;;;;;5076162;28;20482;-72
2022/12/23 00:43:26;;;;;;;31.90;16.90;;;7.00;99.90;;;;;;5076353;28;20403;-68
2022/12/23 00:45:52;;;;;;;30.30;18.00;;;7.10;99.90;;;;;;5075311;28;20452;-67
2022/12/23 00:51:01;;;;;;;36.07;17.60;;;7.10;99.90;;;;;;5076303;28;20412;-73
2022/12/23 00:53:27;;;;;;;37.50;18.57;;;7.10;99.90;;;;;;5075916;28;20444;-73
2022/12/23 00:55:53;;;;;;;35.30;17.83;;;7.00;99.90;;;;;;5057383;28;20194;-67
2022/12/23 00:58:20;;;;;;;43.30;18.87;;;7.00;99.90;;;;;;5075596;28;20253;-73
2022/12/23 01:06:16;;;;;;;34.20;18.40;;;7.10;99.90;;;;;;5074829;28;20428;-72
2022/12/23 01:08:42;;;;;;;29.37;16.60;;;7.10;99.90;;;;;;5057487;28;20425;-73
2022/12/23 01:11:11;;;;;;;32.80;18.37;;;7.10;99.90;;;;;;5075650;28;20495;-68
2022/12/23 01:13:37;;;;;;;27.40;18.03;;;7.20;99.90;;;;;;5074805;28;20452;-67
2022/12/23 01:16:06;;;;;;;33.60;16.90;;;7.20;99.90;;;;;;5074251;28;20403;-67
2022/12/23 01:18:36;;;;;;;33.60;19.40;;;7.20;99.90;;;;;;5075150;28;20396;-71
2022/12/23 01:21:04;;;;;;;30.13;18.50;;;7.20;99.90;;;;;;5075494;28;20413;-68
2022/12/23 01:23:30;;;;;;;31.60;18.33;;;7.20;99.90;;;;;;5075281;28;20482;-68
2022/12/23 01:25:57;;;;;;;28.33;18.90;;;7.20;99.90;;;;;;5074667;28;20401;-67
2022/12/23 01:28:24;;;;;;;29.60;18.10;;;7.20;99.90;;;;;;5067138;28;20408;-68
2022/12/23 01:30:49;;;;;;;37.93;19.00;;;7.20;99.90;;;;;;5075160;28;20776;-67
2022/12/23 01:33:15;;;;;;;35.43;19.90;;;7.20;99.90;;;;;;5073688;28;20458;-72
2022/12/23 01:35:41;;;;;;;35.83;18.57;;;7.20;99.90;;;;;;5074254;28;20573;-67
2022/12/23 01:38:06;;;;;;;31.90;19.43;;;7.20;99.90;;;;;;5075100;28;20177;-68
2022/12/23 01:40:36;;;;;;;36.60;18.03;;;7.20;99.90;;;;;;5075012;28;20228;-72
2022/12/23 01:43:02;;;;;;;35.53;18.83;;;7.10;99.90;;;;;;5074703;28;20277;-73
2022/12/23 01:45:30;;;;;;;45.80;19.07;;;7.20;99.90;;;;;;5074035;28;20964;-67
2022/12/23 01:48:12;;;;;;;35.80;21.50;;;7.20;99.90;;;;;;5074631;28;20630;-73
2022/12/23 01:50:47;;;;;;;38.90;20.50;;;7.20;99.90;;;;;;5056850;28;20469;-68
2022/12/23 01:53:27;;;;;;;40.47;18.00;;;7.10;99.90;;;;;;5056845;28;20486;-73
2022/12/23 01:56:06;;;;;;;36.03;17.53;;;7.10;99.90;;;;;;5073929;28;20990;-67
2022/12/23 01:58:37;;;;;;;39.80;18.97;;;7.10;99.90;;;;;;5074622;28;20610;-67
2022/12/23 02:03:50;;;;;;;33.07;19.40;;;7.10;99.90;;;;;;5074728;28;20503;-67
2022/12/23 02:09:17;;;;;;;36.13;18.70;;;7.10;99.90;;;;;;5074271;28;20399;-68
2022/12/23 02:12:08;;;;;;;42.50;19.67;;;7.10;99.90;;;;;;5074590;28;20412;-73
2022/12/23 02:18:10;;;;;;;35.50;19.83;;;7.10;99.90;;;;;;5074110;28;20423;-67
2022/12/23 02:20:38;;;;;;;37.77;20.73;;;7.10;99.90;;;;;;5073921;28;20923;-73
2022/12/23 02:23:52;;;;;;;41.10;21.47;;;7.10;99.90;;;;;;5074209;28;20461;-68
2022/12/23 02:26:32;;;;;;;35.70;18.60;;;7.10;99.90;;;;;;5070544;28;20428;-67
2022/12/23 02:29:27;;;;;;;36.17;21.47;;;7.20;99.90;;;;;;5074084;28;20408;-68
2022/12/23 02:32:09;;;;;;;36.73;20.17;;;7.10;99.90;;;;;;5074106;28;20809;-68
2022/12/23 02:34:48;;;;;;;39.00;19.83;;;7.10;99.90;;;;;;5073105;28;20459;-68
2022/12/23 02:37:35;;;;;;;29.73;18.90;;;7.10;99.90;;;;;;5073839;28;20421;-68
2022/12/23 02:40:13;;;;;;;37.93;20.37;;;7.00;99.90;;;;;;5073852;28;20458;-68
2022/12/23 02:42:46;;;;;;;38.20;18.90;;;7.00;99.90;;;;;;5073787;28;20401;-73
2022/12/23 02:45:25;;;;;;;37.40;20.17;;;7.00;99.90;;;;;;5072945;28;20793;-72
2022/12/23 02:48:03;;;;;;;43.90;19.83;;;7.00;99.90;;;;;;5073735;28;20401;-73
2022/12/23 02:50:35;;;;;;;44.33;21.20;;;7.00;99.90;;;;;;5073675;28;20932;-67
2022/12/23 02:53:08;;;;;;;51.33;21.97;;;7.00;99.90;;;;;;5073590;28;20545;-73
2022/12/23 02:55:37;;;;;;;40.27;21.17;;;7.00;99.90;;;;;;5072805;28;20421;-67
2022/12/23 02:58:07;;;;;;;45.83;22.93;;;7.00;99.90;;;;;;5055866;28;20413;-67
2022/12/23 03:00:34;;;;;;;48.93;22.20;;;7.00;99.90;;;;;;5073430;28;20476;-68
2022/12/23 03:03:00;;;;;;;37.77;20.47;;;7.00;99.90;;;;;;5073421;28;20404;-69
2022/12/23 03:05:31;;;;;;;38.83;18.80;;;7.00;99.90;;;;;;5072510;28;20440;-72
2022/12/23 03:08:03;;;;;;;40.77;20.40;;;7.00;99.90;;;;;;5073628;28;20409;-73
2022/12/23 03:10:44;;;;;;;43.63;21.50;;;7.00;99.90;;;;;;5073566;28;20404;-67
2022/12/23 03:13:36;;;;;;;35.90;19.00;;;7.10;99.90;;;;;;5073212;28;20489;-68
2022/12/23 03:16:14;;;;;;;37.47;20.20;;;7.10;99.90;;;;;;5072665;28;20416;-67
2022/12/23 03:19:19;;;;;;;38.20;19.73;;;7.10;99.90;;;;;;5073308;28;20476;-68
2022/12/23 03:22:22;;;;;;;44.30;21.33;;;7.10;99.90;;;;;;5073134;28;20448;-72
2022/12/23 03:25:07;;;;;;;38.23;19.13;;;7.10;99.90;;;;;;5072739;28;20427;-73
2022/12/23 03:27:38;;;;;;;39.90;19.87;;;7.10;99.90;;;;;;5073122;28;20412;-72
2022/12/23 03:30:07;;;;;;;37.53;20.13;;;7.10;99.90;;;;;;5073399;28;20401;-73
2022/12/23 03:32:37;;;;;;;37.30;19.50;;;7.20;99.90;;;;;;5073474;28;20397;-68
2022/12/23 03:35:06;;;;;;;39.63;21.33;;;7.20;99.90;;;;;;5072491;28;20432;-73
2022/12/23 03:37:35;;;;;;;36.20;18.10;;;7.20;99.90;;;;;;5074170;28;20415;-72
2022/12/23 03:40:07;;;;;;;37.60;20.13;;;7.20;99.90;;;;;;5077317;28;20757;-67
2022/12/23 03:42:43;;;;;;;39.33;21.20;;;7.20;99.90;;;;;;5077299;28;20419;-72
2022/12/23 03:45:18;;;;;;;35.10;19.27;;;7.10;99.90;;;;;;5076488;28;20416;-73
2022/12/23 03:48:01;;;;;;;47.63;20.10;;;7.20;99.90;;;;;;5059345;28;20404;-68
2022/12/23 03:50:28;;;;;;;38.10;22.40;;;7.10;99.90;;;;;;5059339;28;20416;-73
2022/12/23 03:53:01;;;;;;;51.30;21.17;;;7.00;99.90;;;;;;5076921;28;20448;-68
2022/12/23 03:55:34;;;;;;;39.53;20.17;;;7.10;99.90;;;;;;5058310;28;20479;-72
2022/12/23 03:58:02;;;;;;;42.13;18.93;;;7.10;99.90;;;;;;5076873;28;20440;-68
2022/12/23 04:00:32;;;;;;;38.63;18.67;;;7.10;99.90;;;;;;5076918;28;20732;-73
2022/12/23 04:03:42;;;;;;;31.37;19.00;;;7.10;99.90;;;;;;5076821;28;20408;-73
2022/12/23 04:06:13;;;;;;;36.57;20.87;;;7.00;99.90;;;;;;5066546;28;20439;-73
2022/12/23 04:08:40;;;;;;;34.90;19.83;;;7.00;99.90;;;;;;5076605;28;20450;-67
2022/12/23 04:11:06;;;;;;;43.93;18.57;;;7.00;99.90;;;;;;5058845;28;20416;-73
2022/12/23 04:13:32;;;;;;;34.80;18.03;;;7.00;99.90;;;;;;5076381;28;20451;-71
2022/12/23 04:15:59;;;;;;;36.57;20.70;;;7.00;99.90;;;;;;5075841;28;20405;-73
2022/12/23 04:18:25;;;;;;;44.60;17.30;;;7.00;99.90;;;;;;5076364;28;20950;-67
2022/12/23 04:20:50;;;;;;;36.47;18.33;;;7.00;99.90;;;;;;5076586;28;20408;-67
2022/12/23 04:23:16;;;;;;;47.67;20.47;;;7.00;99.90;;;;;;5076518;28;20181;-67
2022/12/23 04:25:42;;;;;;;41.47;17.53;;;7.00;99.90;;;;;;5075713;28;20204;-67
2022/12/23 04:28:07;;;;;;;39.03;19.53;;;7.00;99.90;;;;;;5076215;28;20185;-71
2022/12/23 04:30:33;;;;;;;39.27;20.57;;;7.00;99.90;;;;;;5076513;28;20185;-67
2022/12/23 04:32:59;;;;;;;38.93;19.73;;;7.00;99.90;;;;;;5076216;28;20221;-67
2022/12/23 04:35:25;;;;;;;36.87;18.10;;;7.00;99.90;;;;;;5075588;28;20530;-73
2022/12/23 04:37:50;;;;;;;45.50;18.50;;;7.10;99.90;;;;;;5058373;28;20405;-67
2022/12/23 04:40:16;;;;;;;37.67;18.10;;;7.10;99.90;;;;;;5076157;28;20166;-68
2022/12/23 04:42:42;;;;;;;34.50;17.80;;;7.10;99.90;;;;;;5076280;28;20179;-72
2022/12/23 04:45:08;;;;;;;41.50;19.23;;;7.10;99.90;;;;;;5075651;28;20720;-68
2022/12/23 04:47:34;;;;;;;38.13;18.70;;;7.20;99.90;;;;;;5076156;28;20523;-67
2022/12/23 04:50:00;;;;;;;38.97;18.60;;;7.20;99.90;;;;;;5075944;28;20397;-73
2022/12/23 04:52:26;;;;;;;35.50;18.50;;;7.20;99.90;;;;;;5075909;28;20488;-68
2022/12/23 04:54:51;;;;;;;48.40;21.13;;;7.30;99.90;;;;;;5075158;28;20737;-67
2022/12/23 04:57:17;;;;;;;39.03;21.50;;;7.30;99.90;;;;;;5075970;28;20405;-71
2022/12/23 04:59:43;;;;;;;36.93;19.13;;;7.20;99.90;;;;;;5058015;28;20582;-67
2022/12/23 05:02:09;;;;;;;39.83;22.13;;;7.20;99.90;;;;;;5075776;28;20194;-73
2022/12/23 05:04:35;;;;;;;35.90;20.60;;;7.10;99.90;;;;;;5074866;28;20273;-67
2022/12/23 05:07:00;;;;;;;38.33;19.87;;;7.10;99.90;;;;;;5075562;28;20523;-73
2022/12/23 05:09:26;;;;;;;37.50;19.37;;;7.00;99.90;;;;;;5075684;28;20179;-67
2022/12/23 05:11:52;;;;;;;46.30;20.63;;;6.90;99.90;;;;;;5075663;28;20178;-72
2022/12/23 05:14:17;;;;;;;32.00;17.70;;;7.00;99.90;;;;;;5056600;28;20703;-68
2022/12/23 05:16:43;;;;;;;33.30;17.70;;;6.90;99.90;;;;;;5057235;28;20170;-67
2022/12/23 05:19:10;;;;;;;42.93;19.57;;;6.90;99.90;;;;;;5075274;28;20175;-73
2022/12/23 05:21:35;;;;;;;41.30;16.60;;;6.80;99.90;;;;;;5075355;28;20312;-73
2022/12/23 05:24:01;;;;;;;40.60;18.10;;;6.80;99.90;;;;;;5075110;28;20456;-68
2022/12/23 05:26:27;;;;;;;32.77;16.90;;;6.70;99.90;;;;;;5074633;28;20174;-72
2022/12/23 05:28:53;;;;;;;35.50;17.33;;;6.80;99.90;;;;;;5075304;28;20175;-74
2022/12/23 05:31:18;;;;;;;31.07;17.17;;;6.80;99.90;;;;;;5074913;28;20174;-72
2022/12/23 05:33:44;;;;;;;35.47;17.57;;;6.80;99.90;;;;;;5075062;28;20564;-67
2022/12/23 05:36:11;;;;;;;38.67;19.80;;;6.90;99.90;;;;;;5074541;28;20174;-67
2022/12/23 05:38:37;;;;;;;35.07;16.70;;;6.90;99.90;;;;;;5074980;28;20649;-68
2022/12/23 05:41:03;;;;;;;31.40;17.53;;;6.90;99.90;;;;;;5075024;28;20483;-72
2022/12/23 05:43:29;;;;;;;41.47;20.80;;;6.90;99.90;;;;;;5074895;28;20166;-67
2022/12/23 05:45:54;;;;;;;31.50;17.63;;;7.00;99.90;;;;;;5074308;28;20425;-73
2022/12/23 05:48:21;;;;;;;35.20;15.90;;;7.00;99.90;;;;;;5056967;28;20500;-72
2022/12/23 05:50:51;;;;;;;31.23;17.03;;;7.00;99.90;;;;;;5056759;28;20408;-68
2022/12/23 05:53:17;;;;;;;37.17;15.40;;;6.90;99.90;;;;;;5074598;28;20531;-67
2022/12/23 05:55:43;;;;;;;37.10;17.23;;;6.90;99.90;;;;;;5073888;28;20443;-68
2022/12/23 05:58:08;;;;;;;30.80;16.60;;;6.90;99.90;;;;;;5074661;28;20396;-67
2022/12/23 06:00:34;;;;;;;32.23;15.53;;;6.90;99.90;;;;;;5073880;28;20167;-68
2022/12/23 06:03:00;;;;;;;37.10;16.83;;;7.00;99.90;;;;;;5074294;28;20933;-73
2022/12/23 06:05:26;;;;;;;27.13;17.10;;;6.90;99.90;;;;;;5073658;28;20206;-73
2022/12/23 06:07:51;;;;;;;37.57;17.50;;;6.90;99.90;;;;;;5074423;28;20178;-73
2022/12/23 06:10:17;;;;;;;27.87;15.10;;;6.90;99.90;;;;;;5074410;28;20232;-74
2022/12/23 06:12:43;;;;;;;28.70;16.67;;;6.90;99.90;;;;;;5074187;28;20181;-71
2022/12/23 06:15:10;;;;;;;32.07;16.93;;;6.90;99.90;;;;;;5073438;28;20434;-68
2022/12/23 06:17:35;;;;;;;35.10;16.33;;;7.00;99.90;;;;;;5074320;28;20194;-74
2022/12/23 06:20:02;;;;;;;33.00;16.00;;;7.00;99.90;;;;;;5074152;28;20404;-74
2022/12/23 06:22:27;;;;;;;32.20;16.13;;;7.00;99.90;;;;;;5074046;28;20166;-68
2022/12/23 06:24:53;;;;;;;35.80;16.00;;;7.00;99.90;;;;;;5073102;28;20892;-71
2022/12/23 06:27:19;;;;;;;33.10;16.40;;;7.00;99.90;;;;;;5073940;28;20181;-68
2022/12/23 06:29:44;;;;;;;38.10;18.23;;;6.90;99.90;;;;;;5074113;28;20642;-73
2022/12/23 06:32:10;;;;;;;41.87;16.60;;;6.90;99.90;;;;;;5074220;28;20182;-68
2022/12/23 06:34:36;;;;;;;33.73;14.90;;;6.90;99.90;;;;;;5073181;28;20510;-68
2022/12/23 06:37:02;;;;;;;44.13;17.10;;;7.00;99.90;;;;;;5056019;28;20459;-73
2022/12/23 06:39:27;;;;;;;29.77;16.37;;;7.00;99.90;;;;;;5073870;28;20170;-68
2022/12/23 06:41:53;;;;;;;39.53;19.33;;;7.00;99.90;;;;;;5056182;28;20979;-73
2022/12/23 06:44:19;;;;;;;32.23;15.43;;;7.00;99.90;;;;;;5055388;28;20221;-72
2022/12/23 06:46:44;;;;;;;39.13;17.73;;;7.10;99.90;;;;;;5073790;28;20227;-73
2022/12/23 06:49:10;;;;;;;36.10;17.23;;;7.10;99.90;;;;;;5055964;28;20185;-68
2022/12/23 06:51:36;;;;;;;35.63;17.60;;;7.10;99.90;;;;;;5073639;28;20567;-73
2022/12/23 06:54:02;;;;;;;35.57;17.20;;;7.10;99.90;;;;;;5073298;28;20491;-72
2022/12/23 06:56:27;;;;;;;37.20;17.33;;;7.00;99.90;;;;;;5055102;28;20177;-66
2022/12/23 06:58:53;;;;;;;36.27;16.73;;;7.10;99.90;;;;;;5073614;28;20182;-66
2022/12/23 07:01:19;;;;;;;28.47;15.70;;;7.10;99.90;;;;;;5073504;28;20173;-72
2022/12/23 07:03:45;;;;;;;31.20;16.60;;;7.10;99.90;;;;;;5073339;28;20244;-66
2022/12/23 07:06:11;;;;;;;30.03;15.33;;;7.10;99.90;;;;;;5072733;28;20892;-66
2022/12/23 07:08:37;;;;;;;34.90;16.17;;;7.10;99.90;;;;;;5073395;28;20216;-68
2022/12/23 07:11:03;;;;;;;30.37;14.80;;;7.20;99.90;;;;;;5073321;28;20401;-74
2022/12/23 07:13:30;;;;;;;36.87;15.80;;;7.20;99.90;;;;;;5072422;28;20229;-68
2022/12/23 07:15:56;;;;;;;32.20;16.37;;;7.20;99.90;;;;;;5072631;28;20441;-74
2022/12/23 07:18:22;;;;;;;30.40;15.57;;;7.20;99.90;;;;;;5073317;28;20450;-73
2022/12/23 07:20:49;;;;;;;37.97;16.70;;;7.20;99.90;;;;;;5073422;28;20166;-73
2022/12/23 07:23:15;;;;;;;26.23;14.03;;;7.20;99.90;;;;;;5073087;28;20452;-67
2022/12/23 07:25:41;;;;;;;25.77;14.10;;;7.20;99.90;;;;;;5054650;28;20440;-67
2022/12/23 07:28:06;;;;;;;32.00;16.33;;;7.20;99.90;;;;;;5073266;28;20420;-68
2022/12/23 07:30:32;;;;;;;28.87;14.57;;;7.20;99.90;;;;;;5073253;28;20178;-73
2022/12/23 07:32:58;;;;;;;34.20;15.37;;;7.10;99.90;;;;;;5055281;28;20647;-74
2022/12/23 07:35:24;;;;;;;36.13;14.97;;;7.10;99.90;;;;;;5072387;28;20186;-68
2022/12/23 07:37:54;;;;;;;31.33;15.50;;;7.20;99.90;;;;;;5072967;28;20407;-68
2022/12/23 07:40:21;;;;;;;35.97;16.37;;;7.10;99.90;;;;;;5073186;28;20582;-68
2022/12/23 07:42:48;;;;;;;31.90;15.23;;;7.00;99.90;;;;;;5073489;28;20385;-67
2022/12/23 07:45:15;;;;;;;25.67;13.10;;;7.10;99.90;;;;;;5072444;28;20417;-68
2022/12/23 07:47:41;;;;;;;39.37;15.77;;;7.10;99.90;;;;;;5055159;28;20466;-68
2022/12/23 07:50:07;;;;;;;37.47;14.87;;;7.20;99.90;;;;;;5073147;28;20404;-72
2022/12/23 07:52:33;;;;;;;26.80;13.97;;;7.20;99.90;;;;;;5055094;28;20405;-68
2022/12/23 07:54:58;;;;;;;30.90;14.40;;;7.20;99.90;;;;;;5054253;28;20460;-68
2022/12/23 07:57:24;;;;;;;28.23;15.27;;;7.20;99.90;;;;;;5073127;28;20189;-68
2022/12/23 07:59:50;;;;;;;21.23;11.50;;;7.10;99.90;;;;;;5072936;28;20645;-71
2022/12/23 08:02:15;;;;;;;19.10;11.57;;;7.00;99.90;;;;;;5073155;28;20185;-72
2022/12/23 08:04:41;;;;;;;25.50;12.67;;;7.00;99.90;;;;;;5072289;28;20240;-72
2022/12/23 08:07:07;;;;;;;27.30;12.37;;;7.00;99.90;;;;;;5054891;28;20201;-68
2022/12/23 08:09:33;;;;;;;23.43;11.00;;;7.00;99.90;;;;;;5072822;28;20181;-72
2022/12/23 08:11:58;;;;;;;25.13;12.17;;;6.90;99.90;;;;;;5072961;28;20178;-72
2022/12/23 08:14:24;;;;;;;22.40;11.50;;;6.90;99.90;;;;;;5072184;28;20277;-72
2022/12/23 08:16:50;;;;;;;16.77;10.40;;;6.80;99.90;;;;;;5071610;28;20631;-72
2022/12/23 08:19:16;;;;;;;17.80;10.33;;;6.90;99.90;;;;;;5072802;28;20244;-67
2022/12/23 08:21:41;;;;;;;20.90;11.83;;;6.70;99.90;;;;;;5072709;28;20181;-67
2022/12/23 08:24:07;;;;;;;22.70;10.90;;;6.70;99.90;;;;;;5056414;28;20559;-68
2022/12/23 08:26:33;;;;;;;22.60;10.00;;;6.70;99.90;;;;;;5075903;28;20239;-72
2022/12/23 08:28:59;;;;;;;24.03;11.50;;;6.60;99.90;;;;;;5076516;28;20220;-73
2022/12/23 08:31:27;;;;;;;19.80;11.27;;;6.70;99.90;;;;;;5076308;28;20206;-67
2022/12/23 08:33:55;;;;;;;21.93;11.57;;;6.70;99.90;;;;;;5076030;28;20474;-68
2022/12/23 08:36:27;;;;;;;19.10;10.30;;;6.80;99.90;;;;;;5075466;28;20404;-72
2022/12/23 08:38:54;;;;;;;20.77;9.30;;;6.80;99.90;;;;;;5076377;28;20408;-70
2022/12/23 08:41:28;;;;;;;13.83;8.10;;;6.80;99.90;;;;;;5058288;28;20753;-67
2022/12/23 08:43:54;;;;;;;19.33;9.20;;;6.80;99.90;;;;;;5076141;28;20472;-72
2022/12/23 08:46:22;;;;;;;16.20;8.43;;;6.70;99.90;;;;;;5075455;28;20404;-68
2022/12/23 08:48:48;;;;;;;18.37;7.93;;;6.70;99.90;;;;;;5076086;28;20412;-73
2022/12/23 08:51:18;;;;;;;13.20;7.57;;;6.80;99.90;;;;;;5075991;28;20397;-68
2022/12/23 08:53:44;;;;;;;6.20;4.80;;;6.70;99.90;;;;;;5055884;28;20205;-73
2022/12/23 08:56:12;;;;;;;7.57;5.70;;;6.80;99.90;;;;;;5075649;28;20468;-68
2022/12/23 08:58:44;;;;;;;6.53;4.50;;;6.80;99.90;;;;;;5096027;28;20435;-68
2022/12/23 09:01:11;;;;;;;9.80;5.00;;;6.80;99.90;;;;;;5096049;28;20399;-71
2022/12/23 09:03:38;;;;;;;6.47;4.80;;;6.80;99.90;;;;;;5096076;28;20432;-68
2022/12/23 09:06:09;;;;;;;4.90;3.80;;;6.80;99.90;;;;;;5095262;28;20461;-72
2022/12/23 09:08:35;;;;;;;7.10;5.17;;;6.80;99.90;;;;;;5077759;28;20420;-67
2022/12/23 09:11:01;;;;;;;10.57;5.73;;;6.90;99.90;;;;;;5095959;28;20411;-72
2022/12/23 09:13:27;;;;;;;16.37;5.40;;;7.00;99.90;;;;;;5095776;28;20265;-73
2022/12/23 09:15:53;;;;;;;6.67;4.20;;;7.00;99.90;;;;;;5077050;28;20558;-68
2022/12/23 09:18:19;;;;;;;5.33;4.00;;;7.10;99.90;;;;;;5095594;28;20451;-72
2022/12/23 09:20:44;;;;;;;8.77;5.30;;;7.20;99.90;;;;;;5095462;28;20169;-68
2022/12/23 09:23:10;;;;;;;8.37;5.47;;;7.10;99.90;;;;;;5095758;28;20619;-73
2022/12/23 09:25:36;;;;;;;3.97;3.50;;;7.10;99.90;;;;;;5094796;28;20196;-72
2022/12/23 09:28:03;;;;;;;6.77;4.20;;;7.10;99.90;;;;;;5077373;28;20176;-68
2022/12/23 09:30:29;;;;;;;10.20;4.50;;;7.00;99.90;;;;;;5095348;28;20511;-72
2022/12/23 09:32:54;;;;;;;5.47;4.53;;;7.00;99.90;;;;;;5095359;28;20483;-72
2022/12/23 09:35:20;;;;;;;5.40;4.57;;;7.00;99.90;;;;;;5093655;28;20767;-67
2022/12/23 09:37:46;;;;;;;6.87;4.30;;;6.90;99.90;;;;;;5095372;28;20170;-68
2022/12/23 09:40:14;;;;;;;7.77;4.53;;;7.00;99.90;;;;;;5095597;28;20400;-72
2022/12/23 09:42:49;;;;;;;8.60;5.07;;;7.00;99.90;;;;;;5095337;28;20223;-72
2022/12/23 09:45:51;;;;;;;7.83;4.80;;;7.10;99.90;;;;;;5094464;28;20419;-72
2022/12/23 09:48:21;;;;;;;6.17;4.17;;;7.00;99.90;;;;;;5095344;28;20457;-72
2022/12/23 09:50:47;;;;;;;5.70;3.70;;;7.10;99.90;;;;;;5094850;28;20436;-68
2022/12/23 09:53:18;;;;;;;5.60;4.30;;;7.20;99.90;;;;;;5094875;28;20475;-68
2022/12/23 09:56:01;;;;;;;7.60;5.03;;;7.30;99.90;;;;;;5094323;28;20428;-69
2022/12/23 09:58:41;;;;;;;5.20;3.53;;;7.30;99.90;;;;;;5095070;28;20498;-68
2022/12/23 10:01:29;;;;;;;8.13;3.40;;;7.30;99.90;;;;;;5094911;28;20442;-70
2022/12/23 10:04:16;;;;;;;4.83;4.40;;;7.40;99.90;;;;;;5095051;28;20528;-72
2022/12/23 10:06:46;;;;;;;5.77;4.57;;;7.40;99.90;;;;;;5094344;28;20457;-69
2022/12/23 10:09:15;;;;;;;5.23;4.30;;;7.40;99.90;;;;;;5094803;28;20489;-68
2022/12/23 10:11:43;;;;;;;7.57;4.50;;;7.30;99.90;;;;;;5094806;28;20860;-68
2022/12/23 10:14:43;;;;;;;4.93;3.90;;;7.20;99.90;;;;;;5094209;28;20966;-72
2022/12/23 10:17:40;;;;;;;12.10;5.20;;;7.30;99.90;;;;;;5092281;28;20443;-67
2022/12/23 10:20:16;;;;;;;4.10;3.57;;;7.50;99.90;;;;;;5094507;28;20395;-68
2022/12/23 10:22:44;;;;;;;5.23;4.70;;;7.60;99.90;;;;;;5094506;28;20479;-74
2022/12/23 10:25:45;;;;;;;4.13;3.83;;;7.70;99.90;;;;;;5093711;28;20468;-72
2022/12/23 10:28:11;;;;;;;4.53;3.90;;;7.70;99.90;;;;;;5085843;28;20415;-73
2022/12/23 10:30:41;;;;;;;4.17;3.77;;;7.60;99.90;;;;;;5094314;28;20400;-67
2022/12/23 10:33:21;;;;;;;3.23;3.00;;;7.60;99.90;;;;;;5094057;28;20173;-67
2022/12/23 10:35:56;;;;;;;5.83;4.33;;;7.60;99.90;;;;;;5075614;28;20823;-68
2022/12/23 10:39:03;;;;;;;6.23;2.77;;;7.60;99.90;;;;;;5094338;28;20830;-67
2022/12/23 10:41:41;;;;;;;3.73;3.00;;;7.60;99.90;;;;;;5044573;28;20423;-73
2022/12/23 10:44:42;;;;;;;2.73;2.53;;;7.60;99.90;;;;;;5093571;28;20777;-72
2022/12/23 10:47:41;;;;;;;3.50;3.20;;;7.50;99.90;;;;;;5075700;28;20407;-73
2022/12/23 10:50:19;;;;;;;3.43;2.43;;;7.60;99.90;;;;;;5094063;28;20400;-67
2022/12/23 10:52:47;;;;;;;4.40;3.60;;;7.70;99.90;;;;;;5075948;28;20920;-73
2022/12/23 10:55:23;;;;;;;4.40;2.77;;;7.60;99.90;;;;;;5093170;28;20865;-67
2022/12/23 10:57:50;;;;;;;3.63;2.83;;;7.80;99.90;;;;;;5093890;28;20863;-68
2022/12/23 11:00:20;;;;;;;2.93;2.60;;;7.90;99.90;;;;;;5075729;28;20424;-72
2022/12/23 11:03:04;;;;;;;8.23;2.60;;;7.90;81.70;;;;;;5076057;28;20787;-67
2022/12/23 11:05:32;;;;;;;4.90;2.77;;;7.90;64.50;;;;;;5092785;28;20407;-72
2022/12/23 11:07:58;;;;;;;2.30;2.10;;;7.90;44.60;;;;;;5093914;28;20374;-67
2022/12/23 11:10:30;;;;;;;2.23;2.10;;;7.90;30.90;;;;;;5093753;28;20874;-72
2022/12/23 11:12:55;;;;;;;3.93;2.23;;;8.00;27.20;;;;;;5093601;28;20370;-72
2022/12/23 11:15:37;;;;;;;2.97;2.20;;;8.10;25.40;;;;;;5092854;28;20430;-72
2022/12/23 11:18:16;;;;;;;4.33;3.30;;;8.10;1.00;;;;;;5093731;28;20173;-73
2022/12/23 11:20:45;;;;;;;7.53;2.70;;;8.10;1.00;;;;;;5093551;28;20495;-72
2022/12/23 11:23:26;;;;;;;5.33;2.80;;;8.10;1.00;;;;;;5093422;28;20400;-67
2022/12/23 11:26:01;;;;;;;4.53;3.07;;;8.10;1.00;;;;;;5092771;28;20895;-73
2022/12/23 11:28:28;;;;;;;3.50;2.30;;;8.10;1.00;;;;;;5075671;28;20748;-72
2022/12/23 11:30:57;;;;;;;2.93;2.70;;;8.20;1.00;;;;;;5093503;28;20716;-67
2022/12/23 11:33:36;;;;;;;3.23;2.50;;;8.20;1.00;;;;;;5075090;28;20583;-68
2022/12/23 11:36:18;;;;;;;4.77;2.67;;;8.20;1.00;;;;;;5092714;28;20413;-71
2022/12/23 11:38:51;;;;;;;2.77;2.57;;;8.20;1.00;;;;;;5075442;28;20399;-67
2022/12/23 11:41:26;;;;;;;6.07;3.97;;;8.10;1.00;;;;;;5093400;28;20402;-67
2022/12/23 11:43:58;;;;;;;2.63;2.33;;;8.00;1.00;;;;;;5093041;28;20427;-71
2022/12/23 11:46:31;;;;;;;5.53;3.10;;;7.90;1.00;;;;;;5092691;28;20862;-67
2022/12/23 11:49:24;;;;;;;4.43;2.27;;;7.80;1.00;;;;;;5093775;28;20736;-67
2022/12/23 11:52:11;;;;;;;3.90;2.83;;;7.80;1.00;;;;;;5091665;28;20887;-72
2022/12/23 11:54:38;;;;;;;5.80;2.83;;;7.60;1.00;;;;;;5092574;28;20452;-72
2022/12/23 11:57:13;;;;;;;3.67;2.40;;;7.50;1.00;;;;;;5093284;28;20400;-67
2022/12/23 11:59:44;;;;;;;2.23;1.93;;;7.40;1.00;;;;;;5096139;28;20536;-67
2022/12/23 12:02:28;;;;;;;3.30;2.20;;;7.30;1.00;;;;;;5097199;28;20859;-67
2022/12/23 12:05:05;;;;;;;2.40;2.20;;;7.30;1.00;;;;;;5078176;28;20428;-67
2022/12/23 12:07:32;;;;;;;8.93;2.27;;;7.30;1.00;;;;;;5079012;28;20394;-72
2022/12/23 12:10:00;;;;;;;2.47;1.90;;;7.20;1.00;;;;;;5079012;28;20421;-72
2022/12/23 12:12:27;;;;;;;3.53;1.83;;;7.20;1.00;;;;;;5097020;28;20407;-72
2022/12/23 12:14:56;;;;;;;7.33;2.40;;;7.20;1.00;;;;;;5077935;28;20975;-67
2022/12/23 12:17:43;;;;;;;3.60;2.00;;;7.20;1.00;;;;;;5096925;28;20400;-72
2022/12/23 12:20:15;;;;;;;2.50;1.90;;;7.20;1.00;;;;;;5079060;28;20479;-72
2022/12/23 12:22:48;;;;;;;8.23;2.07;;;7.20;1.00;;;;;;5097052;28;20883;-67
2022/12/23 12:25:20;;;;;;;4.03;2.10;;;7.10;1.00;;;;;;5095934;28;20791;-68
2022/12/23 12:27:55;;;;;;;2.80;1.80;;;7.00;1.00;;;;;;5096745;28;20986;-72
2022/12/23 12:30:21;;;;;;;4.80;2.17;;;7.10;1.00;;;;;;5096703;28;20419;-67
2022/12/23 12:32:58;;;;;;;4.40;2.07;;;7.10;1.00;;;;;;5096577;28;20407;-72
2022/12/23 12:35:42;;;;;;;2.30;1.93;;;7.20;1.00;;;;;;5077653;28;20477;-67
2022/12/23 12:38:31;;;;;;;4.03;2.30;;;7.20;1.00;;;;;;5096421;28;20403;-67
2022/12/23 12:41:07;;;;;;;2.03;1.93;;;7.10;1.00;;;;;;5096422;28;20503;-72
2022/12/23 12:44:03;;;;;;;6.03;2.07;;;7.00;1.00;;;;;;5078118;28;20414;-72
2022/12/23 12:46:39;;;;;;;2.10;1.90;;;7.00;1.00;;;;;;5080736;28;20429;-72
2022/12/23 12:49:29;;;;;;;3.37;1.80;;;7.00;1.00;;;;;;5096367;28;20400;-72
2022/12/23 12:52:21;;;;;;;3.40;1.90;;;7.00;1.00;;;;;;5096377;28;20876;-71
2022/12/23 12:55:12;;;;;;;3.53;2.30;;;6.90;1.00;;;;;;5089569;28;21008;-67
2022/12/23 12:57:39;;;;;;;5.37;2.00;;;6.80;1.00;;;;;;5096241;28;20523;-71
2022/12/23 13:00:12;;;;;;;3.20;2.20;;;6.70;1.00;;;;;;5096177;28;20482;-71
2022/12/23 13:03:14;;;;;;;2.30;2.20;;;6.70;1.00;;;;;;5096170;28;20397;-72
2022/12/23 13:06:06;;;;;;;3.67;2.50;;;6.60;1.00;;;;;;5052487;28;20470;-67
2022/12/23 13:08:53;;;;;;;3.50;2.33;;;6.50;1.00;;;;;;5094931;28;20422;-67
2022/12/23 13:11:59;;;;;;;3.10;1.90;;;6.40;1.00;;;;;;5095913;28;20410;-71
2022/12/23 13:14:50;;;;;;;6.10;2.30;;;6.30;1.00;;;;;;5094865;28;20455;-68
2022/12/23 13:17:25;;;;;;;2.07;1.93;;;6.20;1.00;;;;;;5090072;28;20477;-71
2022/12/23 13:20:29;;;;;;;3.93;2.47;;;6.20;1.00;;;;;;5095795;28;20937;-67
2022/12/23 13:23:00;;;;;;;4.50;2.03;;;6.10;1.00;;;;;;5070994;28;20451;-68
2022/12/23 13:25:32;;;;;;;4.13;2.50;;;6.10;1.00;;;;;;5061488;28;20445;-67
2022/12/23 13:28:17;;;;;;;3.20;2.80;;;6.00;1.00;;;;;;5081108;28;20427;-67
2022/12/23 13:30:57;;;;;;;4.03;2.00;;;6.00;1.00;;;;;;5064381;28;20424;-68
2022/12/23 13:33:51;;;;;;;2.70;2.50;;;5.90;1.00;;;;;;5075095;28;20498;-70